sensor_id;sensor_type;location;lat;lon;timestamp;pressure;altitude;pressure_sealevel;temperature;humidity
54512;BME280;40419;47.438;19.026;2023-04-08T00:00:02;100025.03;;;2.97;100.00
54512;BME280;40419;47.438;19.026;2023-04-08T00:02:37;100018.59;;;3.36;100.00
54512;BME280;40419;47.438;19.026;2023-04-08T00:05:05;100026.78;;;2.89;100.00
54512;BME280;40419;47.438;19.026;2023-04-08T00:07:33;100022.88;;;2.83;100.00
54512;BME280;40419;47.438;19.026;2023-04-08T00:09:59;100021.66;;;2.95;100.00
54512;BME280;40419;47.438;19.026;2023-04-08T00:12:25;100022.22;;;2.99;100.00
54512;BME280;40419;47.438;19.026;2023-04-08T00:14:50;100023.84;;;2.82;100.00
54512;BME280;40419;47.438;19.026;2023-04-08T00:17:16;100026.28;;;2.75;100.00
54512;BME280;40419;47.438;19.026;2023-04-08T00:19:49;100027.47;;;2.91;100.00
54512;BME280;40419;47.438;19.026;2023-04-08T00:22:17;100039.25;;;2.98;100.00
54512;BME280;40419;47.438;19.026;2023-04-08T00:24:45;100033.56;;;2.83;100.00
54512;BME280;40419;47.438;19.026;2023-04-08T00:27:13;100027.38;;;2.82;100.00
54512;BME280;40419;47.438;19.026;2023-04-08T00:29:39;100027.69;;;2.79;100.00
54512;BME280;40419;47.438;19.026;2023-04-08T00:32:10;100031.47;;;2.77;100.00
54512;BME280;40419;47.438;19.026;2023-04-08T00:34:38;100032.72;;;2.82;100.00
54512;BME280;40419;47.438;19.026;2023-04-08T00:37:04;100033.94;;;2.88;100.00
54512;BME280;40419;47.438;19.026;2023-04-08T00:39:29;100029.16;;;2.92;100.00
54512;BME280;40419;47.438;19.026;2023-04-08T00:41:55;100026.78;;;2.89;100.00
54512;BME280;40419;47.438;19.026;2023-04-08T00:44:24;100026.97;;;3.05;100.00
54512;BME280;40419;47.438;19.026;2023-04-08T00:46:50;100028.00;;;2.94;100.00
54512;BME280;40419;47.438;19.026;2023-04-08T00:49:15;100032.81;;;2.91;100.00
54512;BME280;40419;47.438;19.026;2023-04-08T00:51:41;100034.50;;;2.92;100.00
54512;BME280;40419;47.438;19.026;2023-04-08T00:54:09;100029.00;;;2.93;100.00
54512;BME280;40419;47.438;19.026;2023-04-08T00:56:40;100039.94;;;2.72;100.00
54512;BME280;40419;47.438;19.026;2023-04-08T00:59:10;100029.53;;;2.69;100.00
54512;BME280;40419;47.438;19.026;2023-04-08T01:04:39;100038.22;;;2.81;100.00
54512;BME280;40419;47.438;19.026;2023-04-08T01:09:44;100034.69;;;2.80;100.00
54512;BME280;40419;47.438;19.026;2023-04-08T01:12:21;100038.53;;;2.78;100.00
54512;BME280;40419;47.438;19.026;2023-04-08T01:15:02;100030.81;;;2.93;100.00
54512;BME280;40419;47.438;19.026;2023-04-08T01:17:35;100028.25;;;2.73;100.00
54512;BME280;40419;47.438;19.026;2023-04-08T01:20:05;100028.06;;;2.84;100.00
54512;BME280;40419;47.438;19.026;2023-04-08T01:25:19;100037.31;;;2.90;100.00
54512;BME280;40419;47.438;19.026;2023-04-08T01:27:48;100033.84;;;2.80;100.00
54512;BME280;40419;47.438;19.026;2023-04-08T01:30:18;100027.69;;;2.79;100.00
54512;BME280;40419;47.438;19.026;2023-04-08T01:32:46;100035.25;;;2.84;100.00
54512;BME280;40419;47.438;19.026;2023-04-08T01:35:14;100027.63;;;2.89;100.00
54512;BME280;40419;47.438;19.026;2023-04-08T01:37:41;100025.78;;;2.90;100.00
54512;BME280;40419;47.438;19.026;2023-04-08T01:40:10;100031.22;;;2.98;100.00
54512;BME280;40419;47.438;19.026;2023-04-08T01:42:38;100016.91;;;2.89;100.00
54512;BME280;40419;47.438;19.026;2023-04-08T01:45:08;100030.19;;;3.09;100.00
54512;BME280;40419;47.438;19.026;2023-04-08T01:47:36;100026.66;;;2.80;100.00
54512;BME280;40419;47.438;19.026;2023-04-08T01:50:06;100027.25;;;2.74;100.00
54512;BME280;40419;47.438;19.026;2023-04-08T01:52:34;100028.44;;;2.62;100.00
54512;BME280;40419;47.438;19.026;2023-04-08T01:55:07;100024.59;;;2.74;100.00
54512;BME280;40419;47.438;19.026;2023-04-08T01:57:37;100024.06;;;2.71;100.00
54512;BME280;40419;47.438;19.026;2023-04-08T02:00:11;100015.28;;;2.78;100.00
54512;BME280;40419;47.438;19.026;2023-04-08T02:02:46;100018.84;;;2.69;100.00
54512;BME280;40419;47.438;19.026;2023-04-08T02:05:13;100026.13;;;2.77;100.00
54512;BME280;40419;47.438;19.026;2023-04-08T02:07:41;100019.28;;;2.64;100.00
54512;BME280;40419;47.438;19.026;2023-04-08T02:10:07;100027.31;;;2.64;100.00
54512;BME280;40419;47.438;19.026;2023-04-08T02:12:35;100022.94;;;2.63;100.00
54512;BME280;40419;47.438;19.026;2023-04-08T02:15:01;100025.25;;;2.58;100.00
54512;BME280;40419;47.438;19.026;2023-04-08T02:17:42;100023.41;;;2.59;100.00
54512;BME280;40419;47.438;19.026;2023-04-08T02:20:18;100021.81;;;2.66;100.00
54512;BME280;40419;47.438;19.026;2023-04-08T02:22:56;100021.56;;;2.59;100.00
54512;BME280;40419;47.438;19.026;2023-04-08T02:25:24;100024.38;;;2.58;100.00
54512;BME280;40419;47.438;19.026;2023-04-08T02:27:56;100020.56;;;2.60;100.00
54512;BME280;40419;47.438;19.026;2023-04-08T02:30:27;100021.25;;;2.62;100.00
54512;BME280;40419;47.438;19.026;2023-04-08T02:32:53;100020.59;;;2.51;100.00
54512;BME280;40419;47.438;19.026;2023-04-08T02:35:24;100022.66;;;2.66;100.00
54512;BME280;40419;47.438;19.026;2023-04-08T02:37:50;100026.47;;;2.64;100.00
54512;BME280;40419;47.438;19.026;2023-04-08T02:40:30;100022.34;;;2.70;100.00
54512;BME280;40419;47.438;19.026;2023-04-08T02:43:01;100013.44;;;2.79;100.00
54512;BME280;40419;47.438;19.026;2023-04-08T02:45:32;100013.16;;;2.54;100.00
54512;BME280;40419;47.438;19.026;2023-04-08T02:48:02;100014.28;;;2.52;100.00
54512;BME280;40419;47.438;19.026;2023-04-08T02:50:31;100024.59;;;2.74;100.00
54512;BME280;40419;47.438;19.026;2023-04-08T02:52:59;100019.53;;;2.71;100.00
54512;BME280;40419;47.438;19.026;2023-04-08T02:55:29;100014.63;;;2.66;100.00
54512;BME280;40419;47.438;19.026;2023-04-08T02:57:56;100015.91;;;2.62;100.00
54512;BME280;40419;47.438;19.026;2023-04-08T03:00:22;100015.66;;;2.56;100.00
54512;BME280;40419;47.438;19.026;2023-04-08T03:02:49;100017.97;;;2.78;100.00
54512;BME280;40419;47.438;19.026;2023-04-08T03:05:17;100015.72;;;2.74;100.00
54512;BME280;40419;47.438;19.026;2023-04-08T03:07:46;100021.53;;;2.69;100.00
54512;BME280;40419;47.438;19.026;2023-04-08T03:10:16;100017.06;;;2.60;100.00
54512;BME280;40419;47.438;19.026;2023-04-08T03:12:46;100029.94;;;2.74;100.00
54512;BME280;40419;47.438;19.026;2023-04-08T03:15:14;100020.34;;;2.54;100.00
54512;BME280;40419;47.438;19.026;2023-04-08T03:17:40;100026.31;;;2.65;100.00
54512;BME280;40419;47.438;19.026;2023-04-08T03:20:08;100016.72;;;2.73;100.00
54512;BME280;40419;47.438;19.026;2023-04-08T03:22:35;100030.53;;;2.68;100.00
54512;BME280;40419;47.438;19.026;2023-04-08T03:25:00;100020.94;;;2.75;100.00
54512;BME280;40419;47.438;19.026;2023-04-08T03:27:28;100026.56;;;2.72;100.00
54512;BME280;40419;47.438;19.026;2023-04-08T03:29:56;100032.53;;;2.66;100.00
54512;BME280;40419;47.438;19.026;2023-04-08T03:32:24;100026.38;;;2.56;100.00
54512;BME280;40419;47.438;19.026;2023-04-08T03:34:54;100032.09;;;2.61;100.00
54512;BME280;40419;47.438;19.026;2023-04-08T03:37:22;100031.72;;;2.56;100.00
54512;BME280;40419;47.438;19.026;2023-04-08T03:39:50;100039.13;;;2.62;100.00
54512;BME280;40419;47.438;19.026;2023-04-08T03:42:20;100033.50;;;2.65;100.00
54512;BME280;40419;47.438;19.026;2023-04-08T03:44:51;100032.25;;;2.59;100.00
54512;BME280;40419;47.438;19.026;2023-04-08T03:47:19;100037.75;;;2.58;100.00
54512;BME280;40419;47.438;19.026;2023-04-08T03:49:44;100040.97;;;2.61;100.00
54512;BME280;40419;47.438;19.026;2023-04-08T03:52:10;100044.69;;;2.78;100.00
54512;BME280;40419;47.438;19.026;2023-04-08T03:54:36;100045.59;;;2.69;100.00
54512;BME280;40419;47.438;19.026;2023-04-08T03:57:06;100052.72;;;2.78;100.00
54512;BME280;40419;47.438;19.026;2023-04-08T03:59:31;100049.25;;;2.68;100.00
54512;BME280;40419;47.438;19.026;2023-04-08T04:01:58;100053.78;;;2.58;100.00
54512;BME280;40419;47.438;19.026;2023-04-08T04:04:28;100051.53;;;2.63;100.00
54512;BME280;40419;47.438;19.026;2023-04-08T04:06:58;100055.31;;;2.60;100.00
54512;BME280;40419;47.438;19.026;2023-04-08T04:09:24;100059.13;;;2.58;100.00
54512;BME280;40419;47.438;19.026;2023-04-08T04:11:51;100059.19;;;2.76;100.00
54512;BME280;40419;47.438;19.026;2023-04-08T04:14:19;100067.13;;;2.68;100.00
54512;BME280;40419;47.438;19.026;2023-04-08T04:16:45;100066.03;;;2.60;100.00
54512;BME280;40419;47.438;19.026;2023-04-08T04:19:12;100067.00;;;2.59;100.00
54512;BME280;40419;47.438;19.026;2023-04-08T04:21:40;100071.50;;;2.59;100.00
54512;BME280;40419;47.438;19.026;2023-04-08T04:24:08;100070.63;;;2.68;100.00
54512;BME280;40419;47.438;19.026;2023-04-08T04:26:39;100073.50;;;2.57;100.00
54512;BME280;40419;47.438;19.026;2023-04-08T04:29:07;100068.16;;;2.57;100.00
54512;BME280;40419;47.438;19.026;2023-04-08T04:31:34;100065.06;;;2.52;100.00
54512;BME280;40419;47.438;19.026;2023-04-08T04:34:03;100065.91;;;2.52;100.00
54512;BME280;40419;47.438;19.026;2023-04-08T04:36:29;100068.91;;;2.77;100.00
54512;BME280;40419;47.438;19.026;2023-04-08T04:38:58;100072.41;;;2.77;100.00
54512;BME280;40419;47.438;19.026;2023-04-08T04:41:26;100073.59;;;2.65;100.00
54512;BME280;40419;47.438;19.026;2023-04-08T04:43:56;100069.38;;;2.62;100.00
54512;BME280;40419;47.438;19.026;2023-04-08T04:46:24;100070.38;;;2.61;100.00
54512;BME280;40419;47.438;19.026;2023-04-08T04:48:49;100069.97;;;2.56;100.00
54512;BME280;40419;47.438;19.026;2023-04-08T04:51:15;100067.78;;;2.42;100.00
54512;BME280;40419;47.438;19.026;2023-04-08T04:53:41;100065.59;;;2.65;100.00
54512;BME280;40419;47.438;19.026;2023-04-08T04:56:11;100069.94;;;2.66;100.00
54512;BME280;40419;47.438;19.026;2023-04-08T04:58:39;100084.97;;;2.67;100.00
54512;BME280;40419;47.438;19.026;2023-04-08T05:01:07;100072.63;;;2.66;100.00
54512;BME280;40419;47.438;19.026;2023-04-08T05:03:35;100078.06;;;2.74;100.00
54512;BME280;40419;47.438;19.026;2023-04-08T05:06:03;100077.38;;;2.72;100.00
54512;BME280;40419;47.438;19.026;2023-04-08T05:08:31;100083.47;;;2.64;100.00
54512;BME280;40419;47.438;19.026;2023-04-08T05:10:56;100079.81;;;2.56;100.00
54512;BME280;40419;47.438;19.026;2023-04-08T05:13:28;100077.88;;;2.48;100.00
54512;BME280;40419;47.438;19.026;2023-04-08T05:15:54;100081.31;;;2.68;100.00
54512;BME280;40419;47.438;19.026;2023-04-08T05:18:20;100084.28;;;2.65;100.00
54512;BME280;40419;47.438;19.026;2023-04-08T05:20:48;100099.22;;;2.68;100.00
54512;BME280;40419;47.438;19.026;2023-04-08T05:23:14;100101.31;;;2.64;100.00
54512;BME280;40419;47.438;19.026;2023-04-08T05:25:39;100094.00;;;2.66;100.00
54512;BME280;40419;47.438;19.026;2023-04-08T05:28:07;100100.09;;;2.58;100.00
54512;BME280;40419;47.438;19.026;2023-04-08T05:30:33;100106.84;;;2.53;100.00
54512;BME280;40419;47.438;19.026;2023-04-08T05:33:02;100101.31;;;2.64;100.00
54512;BME280;40419;47.438;19.026;2023-04-08T05:35:32;100095.53;;;2.69;100.00
54512;BME280;40419;47.438;19.026;2023-04-08T05:38:01;100102.75;;;2.58;100.00
54512;BME280;40419;47.438;19.026;2023-04-08T05:40:27;100109.22;;;2.56;100.00
54512;BME280;40419;47.438;19.026;2023-04-08T05:42:55;100108.34;;;2.65;100.00
54512;BME280;40419;47.438;19.026;2023-04-08T05:45:23;100115.69;;;2.53;100.00
54512;BME280;40419;47.438;19.026;2023-04-08T05:47:48;100114.66;;;2.74;100.00
54512;BME280;40419;47.438;19.026;2023-04-08T05:50:17;100113.78;;;2.83;100.00
54512;BME280;40419;47.438;19.026;2023-04-08T05:52:45;100116.47;;;2.83;100.00
54512;BME280;40419;47.438;19.026;2023-04-08T05:55:13;100122.19;;;2.88;100.00
54512;BME280;40419;47.438;19.026;2023-04-08T05:57:39;100105.91;;;2.81;100.00
54512;BME280;40419;47.438;19.026;2023-04-08T06:00:10;100116.53;;;2.63;100.00
54512;BME280;40419;47.438;19.026;2023-04-08T06:02:38;100116.91;;;2.69;100.00
54512;BME280;40419;47.438;19.026;2023-04-08T06:05:03;100128.50;;;2.97;100.00
54512;BME280;40419;47.438;19.026;2023-04-08T06:07:34;100121.19;;;2.99;100.00
54512;BME280;40419;47.438;19.026;2023-04-08T06:10:02;100125.69;;;2.98;100.00
54512;BME280;40419;47.438;19.026;2023-04-08T06:12:34;100132.66;;;2.81;100.00
54512;BME280;40419;47.438;19.026;2023-04-08T06:15:00;100139.84;;;2.71;100.00
54512;BME280;40419;47.438;19.026;2023-04-08T06:17:30;100130.13;;;2.70;100.00
54512;BME280;40419;47.438;19.026;2023-04-08T06:19:59;100138.34;;;2.59;100.00
54512;BME280;40419;47.438;19.026;2023-04-08T06:22:28;100131.44;;;2.66;100.00
54512;BME280;40419;47.438;19.026;2023-04-08T06:24:53;100136.78;;;2.66;100.00
54512;BME280;40419;47.438;19.026;2023-04-08T06:27:21;100140.25;;;2.86;100.00
54512;BME280;40419;47.438;19.026;2023-04-08T06:29:49;100144.84;;;2.94;100.00
54512;BME280;40419;47.438;19.026;2023-04-08T06:32:18;100129.50;;;2.96;100.00
54512;BME280;40419;47.438;19.026;2023-04-08T06:34:47;100139.53;;;3.22;100.00
54512;BME280;40419;47.438;19.026;2023-04-08T06:37:13;100137.03;;;3.10;100.00
54512;BME280;40419;47.438;19.026;2023-04-08T06:39:40;100147.53;;;2.94;100.00
54512;BME280;40419;47.438;19.026;2023-04-08T06:42:06;100147.13;;;2.89;100.00
54512;BME280;40419;47.438;19.026;2023-04-08T06:44:46;100146.59;;;2.75;100.00
54512;BME280;40419;47.438;19.026;2023-04-08T06:47:13;100149.28;;;2.75;100.00
54512;BME280;40419;47.438;19.026;2023-04-08T06:49:39;100146.59;;;2.75;100.00
54512;BME280;40419;47.438;19.026;2023-04-08T06:52:05;100153.06;;;2.82;100.00
54512;BME280;40419;47.438;19.026;2023-04-08T06:54:31;100150.25;;;2.84;100.00
54512;BME280;40419;47.438;19.026;2023-04-08T06:56:59;100158.19;;;2.66;100.00
54512;BME280;40419;47.438;19.026;2023-04-08T06:59:27;100152.13;;;3.01;100.00
54512;BME280;40419;47.438;19.026;2023-04-08T07:01:52;100154.81;;;3.01;100.00
54512;BME280;40419;47.438;19.026;2023-04-08T07:04:18;100156.53;;;2.93;100.00
54512;BME280;40419;47.438;19.026;2023-04-08T07:06:48;100160.38;;;2.90;100.00
54512;BME280;40419;47.438;19.026;2023-04-08T07:09:15;100155.41;;;2.95;100.00
54512;BME280;40419;47.438;19.026;2023-04-08T07:11:48;100156.53;;;2.93;100.00
54512;BME280;40419;47.438;19.026;2023-04-08T07:14:18;100162.41;;;3.06;100.00
54512;BME280;40419;47.438;19.026;2023-04-08T07:16:43;100160.53;;;2.79;100.00
54512;BME280;40419;47.438;19.026;2023-04-08T07:19:12;100161.34;;;2.89;100.00
54512;BME280;40419;47.438;19.026;2023-04-08T07:21:37;100168.94;;;2.94;100.00
54512;BME280;40419;47.438;19.026;2023-04-08T07:24:03;100166.03;;;3.15;100.00
54512;BME280;40419;47.438;19.026;2023-04-08T07:26:31;100168.63;;;2.97;100.00
54512;BME280;40419;47.438;19.026;2023-04-08T07:28:59;100177.03;;;3.12;100.00
54512;BME280;40419;47.438;19.026;2023-04-08T07:31:29;100181.31;;;2.95;100.00
54512;BME280;40419;47.438;19.026;2023-04-08T07:33:55;100178.94;;;2.92;100.00
54512;BME280;40419;47.438;19.026;2023-04-08T07:36:21;100183.28;;;2.93;100.00
54512;BME280;40419;47.438;19.026;2023-04-08T07:38:46;100186.91;;;3.01;100.00
54512;BME280;40419;47.438;19.026;2023-04-08T07:41:15;100187.72;;;3.12;100.00
54512;BME280;40419;47.438;19.026;2023-04-08T07:43:40;100193.84;;;2.94;100.00
54512;BME280;40419;47.438;19.026;2023-04-08T07:46:06;100196.19;;;3.07;100.00
54512;BME280;40419;47.438;19.026;2023-04-08T07:48:34;100193.44;;;2.99;100.00
54512;BME280;40419;47.438;19.026;2023-04-08T07:51:04;100197.59;;;3.11;100.00
54512;BME280;40419;47.438;19.026;2023-04-08T07:53:32;100198.69;;;3.18;100.00
54512;BME280;40419;47.438;19.026;2023-04-08T07:56:09;100196.38;;;3.33;100.00
54512;BME280;40419;47.438;19.026;2023-04-08T07:58:35;100197.22;;;3.34;100.00
54512;BME280;40419;47.438;19.026;2023-04-08T08:01:15;100209.38;;;3.18;100.00
54512;BME280;40419;47.438;19.026;2023-04-08T08:03:40;100202.50;;;3.16;100.00
54512;BME280;40419;47.438;19.026;2023-04-08T08:06:10;100197.09;;;3.26;100.00
54512;BME280;40419;47.438;19.026;2023-04-08T08:08:36;100202.88;;;3.31;100.00
54512;BME280;40419;47.438;19.026;2023-04-08T08:11:04;100206.47;;;3.40;100.00
54512;BME280;40419;47.438;19.026;2023-04-08T08:13:29;100200.59;;;3.64;100.00
54512;BME280;40419;47.438;19.026;2023-04-08T08:15:55;100207.63;;;3.65;100.00
54512;BME280;40419;47.438;19.026;2023-04-08T08:18:26;100206.09;;;3.62;100.00
54512;BME280;40419;47.438;19.026;2023-04-08T08:20:51;100207.84;;;3.53;100.00
54512;BME280;40419;47.438;19.026;2023-04-08T08:23:19;100207.88;;;3.44;100.00
54512;BME280;40419;47.438;19.026;2023-04-08T08:26:00;100212.03;;;3.56;100.00
54512;BME280;40419;47.438;19.026;2023-04-08T08:28:28;100219.00;;;3.77;100.00
54512;BME280;40419;47.438;19.026;2023-04-08T08:30:59;100215.31;;;3.78;100.00
54512;BME280;40419;47.438;19.026;2023-04-08T08:33:27;100222.47;;;3.87;100.00
54512;BME280;40419;47.438;19.026;2023-04-08T08:35:55;100218.03;;;3.68;100.00
54512;BME280;40419;47.438;19.026;2023-04-08T08:38:23;100228.41;;;3.53;100.00
54512;BME280;40419;47.438;19.026;2023-04-08T08:40:57;100226.09;;;3.30;100.00
54512;BME280;40419;47.438;19.026;2023-04-08T08:43:23;100229.19;;;3.35;100.00
54512;BME280;40419;47.438;19.026;2023-04-08T08:45:54;100237.22;;;3.35;100.00
54512;BME280;40419;47.438;19.026;2023-04-08T08:48:20;100239.25;;;3.24;100.00
54512;BME280;40419;47.438;19.026;2023-04-08T08:50:45;100236.72;;;3.12;100.00
54512;BME280;40419;47.438;19.026;2023-04-08T08:53:14;100236.56;;;3.24;100.00
54512;BME280;40419;47.438;19.026;2023-04-08T08:55:41;100232.25;;;3.03;100.00
54512;BME280;40419;47.438;19.026;2023-04-08T08:58:09;100239.69;;;3.57;100.00
54512;BME280;40419;47.438;19.026;2023-04-08T09:00:43;100244.41;;;3.35;100.00
54512;BME280;40419;47.438;19.026;2023-04-08T09:05:55;100243.88;;;3.59;100.00
54512;BME280;40419;47.438;19.026;2023-04-08T09:10:53;100246.66;;;3.67;100.00
54512;BME280;40419;47.438;19.026;2023-04-08T09:13:21;100247.31;;;3.79;100.00
54512;BME280;40419;47.438;19.026;2023-04-08T09:16:11;100250.69;;;3.53;100.00
54512;BME280;40419;47.438;19.026;2023-04-08T09:18:39;100255.16;;;3.63;100.00
54512;BME280;40419;47.438;19.026;2023-04-08T09:21:06;100255.31;;;3.51;100.00
54512;BME280;40419;47.438;19.026;2023-04-08T09:26:12;100265.06;;;3.52;100.00
54512;BME280;40419;47.438;19.026;2023-04-08T09:28:42;100271.59;;;3.68;100.00
54512;BME280;40419;47.438;19.026;2023-04-08T09:31:19;100268.50;;;4.00;100.00
54512;BME280;40419;47.438;19.026;2023-04-08T09:33:49;100272.63;;;3.85;100.00
54512;BME280;40419;47.438;19.026;2023-04-08T09:36:15;100266.97;;;3.70;100.00
54512;BME280;40419;47.438;19.026;2023-04-08T09:38:46;100277.69;;;3.60;100.00
54512;BME280;40419;47.438;19.026;2023-04-08T09:41:17;100279.41;;;3.51;100.00
54512;BME280;40419;47.438;19.026;2023-04-08T09:43:52;100267.38;;;3.37;100.00
54512;BME280;40419;47.438;19.026;2023-04-08T09:46:25;100284.59;;;3.25;100.00
54512;BME280;40419;47.438;19.026;2023-04-08T09:49:04;100272.53;;;3.11;100.00
54512;BME280;40419;47.438;19.026;2023-04-08T09:54:12;100269.22;;;3.27;100.00
54512;BME280;40419;47.438;19.026;2023-04-08T09:57:00;100275.00;;;3.32;100.00
54512;BME280;40419;47.438;19.026;2023-04-08T09:59:33;100278.38;;;3.34;100.00
54512;BME280;40419;47.438;19.026;2023-04-08T10:02:07;100278.34;;;3.44;100.00
54512;BME280;40419;47.438;19.026;2023-04-08T10:04:40;100281.72;;;3.36;100.00
54512;BME280;40419;47.438;19.026;2023-04-08T10:07:11;100279.47;;;3.42;100.00
54512;BME280;40419;47.438;19.026;2023-04-08T10:09:38;100282.84;;;3.44;100.00
54512;BME280;40419;47.438;19.026;2023-04-08T10:12:09;100289.25;;;3.61;100.00
54512;BME280;40419;47.438;19.026;2023-04-08T10:14:35;100287.59;;;3.50;100.00
54512;BME280;40419;47.438;19.026;2023-04-08T10:17:25;100283.22;;;3.59;100.00
54512;BME280;40419;47.438;19.026;2023-04-08T10:19:56;100282.53;;;3.57;100.00
54512;BME280;40419;47.438;19.026;2023-04-08T10:27:47;100286.53;;;3.70;100.00
54512;BME280;40419;47.438;19.026;2023-04-08T10:33:02;100286.00;;;3.67;100.00
54512;BME280;40419;47.438;19.026;2023-04-08T10:35:37;100278.56;;;3.88;100.00
54512;BME280;40419;47.438;19.026;2023-04-08T10:38:07;100288.19;;;3.81;100.00
54512;BME280;40419;47.438;19.026;2023-04-08T10:40:38;100283.22;;;3.86;100.00
54512;BME280;40419;47.438;19.026;2023-04-08T10:43:08;100286.78;;;3.77;100.00
54512;BME280;40419;47.438;19.026;2023-04-08T10:45:40;100285.41;;;3.73;100.00
54512;BME280;40419;47.438;19.026;2023-04-08T10:50:37;100285.41;;;3.73;100.00
54512;BME280;40419;47.438;19.026;2023-04-08T10:53:06;100286.78;;;3.77;100.00
54512;BME280;40419;47.438;19.026;2023-04-08T10:55:34;100283.78;;;3.90;100.00
54512;BME280;40419;47.438;19.026;2023-04-08T10:58:08;100289.94;;;4.00;100.00
54512;BME280;40419;47.438;19.026;2023-04-08T11:00:36;100289.72;;;3.84;100.00
54512;BME280;40419;47.438;19.026;2023-04-08T11:03:03;100295.78;;;4.14;100.00
54512;BME280;40419;47.438;19.026;2023-04-08T11:05:36;100287.63;;;4.05;100.00
54512;BME280;40419;47.438;19.026;2023-04-08T11:08:03;100294.59;;;4.44;100.00
54512;BME280;40419;47.438;19.026;2023-04-08T11:10:33;100289.84;;;4.38;100.00
54512;BME280;40419;47.438;19.026;2023-04-08T11:13:06;100291.63;;;4.19;100.00
54512;BME280;40419;47.438;19.026;2023-04-08T11:15:35;100285.91;;;4.32;100.00
54512;BME280;40419;47.438;19.026;2023-04-08T11:18:04;100285.97;;;4.40;100.00
54512;BME280;40419;47.438;19.026;2023-04-08T11:20:35;100291.72;;;4.28;100.00
54512;BME280;40419;47.438;19.026;2023-04-08T11:23:03;100286.69;;;4.60;100.00
54512;BME280;40419;47.438;19.026;2023-04-08T11:25:29;100285.75;;;4.34;100.00
54512;BME280;40419;47.438;19.026;2023-04-08T11:27:55;100292.34;;;4.21;100.00
54512;BME280;40419;47.438;19.026;2023-04-08T11:30:27;100289.25;;;4.16;100.00
54512;BME280;40419;47.438;19.026;2023-04-08T11:32:56;100293.34;;;3.93;100.00
54512;BME280;40419;47.438;19.026;2023-04-08T11:35:22;100292.59;;;4.00;100.00
54512;BME280;40419;47.438;19.026;2023-04-08T11:37:50;100286.34;;;3.82;100.00
54512;BME280;40419;47.438;19.026;2023-04-08T11:40:21;100295.66;;;4.05;100.00
54512;BME280;40419;47.438;19.026;2023-04-08T11:42:48;100302.34;;;4.19;100.00
54512;BME280;40419;47.438;19.026;2023-04-08T11:45:16;100295.84;;;4.22;100.00
54512;BME280;40419;47.438;19.026;2023-04-08T11:47:44;100292.94;;;4.33;100.00
54512;BME280;40419;47.438;19.026;2023-04-08T11:50:11;100291.88;;;3.98;100.00
54512;BME280;40419;47.438;19.026;2023-04-08T11:55:28;100299.13;;;3.88;100.00
54512;BME280;40419;47.438;19.026;2023-04-08T11:58:02;100302.91;;;3.67;100.00
54512;BME280;40419;47.438;19.026;2023-04-08T12:00:31;100290.50;;;3.66;100.00
54512;BME280;40419;47.438;19.026;2023-04-08T12:03:02;100297.50;;;3.77;100.00
54512;BME280;40419;47.438;19.026;2023-04-08T12:05:27;100295.13;;;3.74;100.00
54512;BME280;40419;47.438;19.026;2023-04-08T12:07:58;100290.47;;;3.76;100.00
54512;BME280;40419;47.438;19.026;2023-04-08T12:10:26;100291.81;;;3.90;100.00
54512;BME280;40419;47.438;19.026;2023-04-08T12:12:54;100290.69;;;3.93;100.00
54512;BME280;40419;47.438;19.026;2023-04-08T12:15:22;100297.28;;;4.16;100.00
54512;BME280;40419;47.438;19.026;2023-04-08T12:17:50;100293.53;;;4.27;100.00
54512;BME280;40419;47.438;19.026;2023-04-08T12:20:20;100289.06;;;4.46;100.00
54512;BME280;40419;47.438;19.026;2023-04-08T12:22:48;100297.13;;;4.64;100.00
54512;BME280;40419;47.438;19.026;2023-04-08T12:25:16;100293.72;;;4.43;100.00
54512;BME280;40419;47.438;19.026;2023-04-08T12:27:41;100289.44;;;4.33;100.00
54512;BME280;40419;47.438;19.026;2023-04-08T12:30:07;100289.97;;;4.54;100.00
54512;BME280;40419;47.438;19.026;2023-04-08T12:32:36;100290.59;;;4.48;100.00
54512;BME280;40419;47.438;19.026;2023-04-08T12:35:01;100293.22;;;4.12;100.00
54512;BME280;40419;47.438;19.026;2023-04-08T12:37:31;100292.66;;;4.36;100.00
54512;BME280;40419;47.438;19.026;2023-04-08T12:39:57;100287.38;;;4.44;100.00
54512;BME280;40419;47.438;19.026;2023-04-08T12:42:29;100280.06;;;4.19;100.00
54512;BME280;40419;47.438;19.026;2023-04-08T12:44:57;100289.44;;;4.33;100.00
54512;BME280;40419;47.438;19.026;2023-04-08T12:47:25;100292.03;;;4.24;100.00
54512;BME280;40419;47.438;19.026;2023-04-08T12:49:53;100296.25;;;4.45;100.00
54512;BME280;40419;47.438;19.026;2023-04-08T12:52:21;100287.06;;;4.30;100.00
54512;BME280;40419;47.438;19.026;2023-04-08T12:54:47;100293.53;;;4.27;100.00
54512;BME280;40419;47.438;19.026;2023-04-08T12:57:12;100291.59;;;4.29;100.00
54512;BME280;40419;47.438;19.026;2023-04-08T12:59:40;100288.19;;;4.27;100.00
54512;BME280;40419;47.438;19.026;2023-04-08T13:02:06;100287.41;;;3.99;100.00
54512;BME280;40419;47.438;19.026;2023-04-08T13:04:36;100285.41;;;4.01;100.00
54512;BME280;40419;47.438;19.026;2023-04-08T13:07:04;100291.56;;;4.11;100.00
54512;BME280;40419;47.438;19.026;2023-04-08T13:09:34;100282.84;;;4.45;100.00
54512;BME280;40419;47.438;19.026;2023-04-08T13:11:59;100287.84;;;4.58;100.00
54512;BME280;40419;47.438;19.026;2023-04-08T13:14:25;100281.69;;;4.66;100.00
54512;BME280;40419;47.438;19.026;2023-04-08T13:16:53;100289.59;;;4.49;100.00
54512;BME280;40419;47.438;19.026;2023-04-08T13:19:21;100279.94;;;4.74;100.00